createdAt,value
2019-02-23T00:01:50.796Z,101998.91
2019-02-23T00:04:56.029Z,102005.03
2019-02-23T00:08:01.177Z,101993.77
2019-02-23T00:11:06.543Z,102004.80
2019-02-23T00:14:11.672Z,102005.31
2019-02-23T00:17:16.815Z,102000.57
2019-02-23T00:20:22.047Z,101997.62
2019-02-23T00:23:27.256Z,102010.92
2019-02-23T00:26:32.369Z,102012.23
2019-02-23T00:29:37.594Z,102013.72
2019-02-23T00:32:42.636Z,102019.41
2019-02-23T00:35:47.846Z,102027.92
2019-02-23T00:38:52.987Z,102025.34
2019-02-23T00:41:58.214Z,102028.02
2019-02-23T00:45:03.331Z,102020.61
2019-02-23T00:48:08.514Z,102020.92
2019-02-23T00:51:13.683Z,102025.48
2019-02-23T00:54:18.829Z,102009.58
2019-02-23T00:57:23.983Z,102012.44
2019-02-23T01:00:29.139Z,102002.44
2019-02-23T01:03:34.315Z,102013.01
2019-02-23T01:06:39.514Z,102011.47
2019-02-23T01:09:44.898Z,102015.74
2019-02-23T01:12:50.081Z,102029.04
2019-02-23T01:15:55.221Z,102038.92
2019-02-23T01:19:00.348Z,102035.34
2019-02-23T01:22:05.481Z,102032.82
2019-02-23T01:25:10.664Z,102039.49
2019-02-23T01:28:15.825Z,102027.16
2019-02-23T01:31:21.008Z,102023.74
2019-02-23T01:34:26.082Z,102022.44
2019-02-23T01:37:31.236Z,102019.98
2019-02-23T01:40:36.384Z,102020.34
2019-02-23T01:43:41.511Z,102023.88
2019-02-23T01:46:46.744Z,102032.55
2019-02-23T01:49:58.834Z,102034.63
2019-02-23T01:52:58.916Z,102033.23
2019-02-23T01:56:04.045Z,102035.27
2019-02-23T01:59:09.225Z,102029.77
2019-02-23T02:02:15.463Z,102033.55
2019-02-23T02:05:20.552Z,102042.06
2019-02-23T02:08:25.719Z,102041.13
2019-02-23T02:11:30.816Z,102045.16
2019-02-23T02:14:36.097Z,102040.47
2019-02-23T02:17:41.269Z,102049.08
2019-02-23T02:20:46.550Z,102038.33
2019-02-23T02:23:51.717Z,102039.00
2019-02-23T02:26:56.900Z,102041.66
2019-02-23T02:30:02.119Z,102050.05
2019-02-23T02:33:07.300Z,102042.55
2019-02-23T02:36:12.473Z,102040.56
2019-02-23T02:39:17.680Z,102038.38
2019-02-23T02:42:22.899Z,102037.63
2019-02-23T02:45:28.044Z,102027.20
2019-02-23T02:48:33.131Z,102030.30
2019-02-23T02:51:38.270Z,102036.52
2019-02-23T02:54:43.401Z,102033.27
2019-02-23T02:57:48.550Z,102035.31
2019-02-23T03:00:53.828Z,102034.25
2019-02-23T03:03:58.968Z,102041.67
2019-02-23T03:07:04.225Z,102044.82
2019-02-23T03:10:09.442Z,102036.16
2019-02-23T03:13:14.650Z,102043.71
2019-02-23T03:16:19.720Z,102051.96
2019-02-23T03:19:24.828Z,102057.41
2019-02-23T03:22:29.943Z,102063.68
2019-02-23T03:25:35.115Z,102041.53
2019-02-23T03:28:40.265Z,102035.89
2019-02-23T03:31:45.405Z,102033.23
2019-02-23T03:34:50.497Z,102028.17
2019-02-23T03:37:55.657Z,102026.21
2019-02-23T03:41:04.113Z,102018.22
2019-02-23T03:44:09.218Z,102016.00
2019-02-23T03:47:14.328Z,102007.42
2019-02-23T03:50:19.511Z,102010.25
2019-02-23T03:53:24.713Z,102011.06
2019-02-23T03:56:29.872Z,102014.39
2019-02-23T03:59:35.001Z,102019.63
2019-02-23T04:02:40.174Z,102021.65
2019-02-23T04:05:45.315Z,102029.35
2019-02-23T04:08:50.430Z,102032.19
2019-02-23T04:11:55.560Z,102019.92
2019-02-23T04:15:00.705Z,102016.91
2019-02-23T04:18:05.827Z,102030.63
2019-02-23T04:21:11.009Z,102023.64
2019-02-23T04:24:16.205Z,102025.95
2019-02-23T04:27:21.356Z,102029.40
2019-02-23T04:30:26.468Z,102029.44
2019-02-23T04:33:31.607Z,102027.00
2019-02-23T04:36:36.772Z,102029.09
2019-02-23T04:39:41.949Z,102026.67
2019-02-23T04:42:47.124Z,102026.48
2019-02-23T04:45:52.255Z,102034.64
2019-02-23T04:48:57.504Z,102032.86
2019-02-23T04:52:02.726Z,102040.36
2019-02-23T04:55:07.868Z,102043.73
2019-02-23T04:58:12.983Z,102044.29
2019-02-23T05:01:18.211Z,102028.14
2019-02-23T05:04:23.376Z,102036.09
2019-02-23T05:07:28.563Z,102027.99
2019-02-23T05:10:33.689Z,102029.10
2019-02-23T05:13:38.832Z,102028.15
2019-02-23T05:16:43.950Z,102023.64
2019-02-23T05:19:49.185Z,102019.45
2019-02-23T05:22:54.300Z,102018.47
2019-02-23T05:25:59.459Z,102011.05
2019-02-23T05:29:04.596Z,102011.31
2019-02-23T05:32:09.740Z,102011.78
2019-02-23T05:35:14.883Z,102010.38
2019-02-23T05:38:22.229Z,102029.61
2019-02-23T05:41:27.483Z,102017.73
2019-02-23T05:44:32.821Z,102022.34
2019-02-23T05:47:38.010Z,102024.98
2019-02-23T05:50:43.187Z,102024.14
2019-02-23T05:53:48.273Z,102029.44
2019-02-23T05:56:53.512Z,102028.52
2019-02-23T05:59:58.653Z,102020.09
2019-02-23T06:03:03.795Z,102034.67
2019-02-23T06:06:08.968Z,102024.80
2019-02-23T06:09:14.138Z,102032.75
2019-02-23T06:12:19.182Z,102028.49
2019-02-23T06:15:25.553Z,102041.44
2019-02-23T06:18:30.757Z,102029.38
2019-02-23T06:21:35.896Z,102033.96
2019-02-23T06:24:41.075Z,102029.81
2019-02-23T06:27:46.278Z,102018.00
2019-02-23T06:30:51.459Z,102020.48
2019-02-23T06:33:56.714Z,102028.49
2019-02-23T06:37:01.868Z,102029.16
2019-02-23T06:40:07.776Z,102024.33
2019-02-23T06:43:12.898Z,102031.62
2019-02-23T06:46:18.047Z,102040.37
2019-02-23T06:49:23.197Z,102041.88
2019-02-23T06:52:28.464Z,102047.41
2019-02-23T06:55:33.688Z,102046.44
2019-02-23T06:58:38.787Z,102052.44
2019-02-23T07:01:43.941Z,102055.02
2019-02-23T07:04:49.072Z,102057.59
2019-02-23T07:07:54.219Z,102056.73
2019-02-23T07:10:59.339Z,102055.91
2019-02-23T07:14:04.555Z,102060.91
2019-02-23T07:17:09.732Z,102060.63
2019-02-23T07:20:14.928Z,102058.16
2019-02-23T07:23:20.020Z,102048.85
2019-02-23T07:26:25.161Z,102058.71
2019-02-23T07:29:30.313Z,102070.22
2019-02-23T07:32:35.507Z,102087.48
2019-02-23T07:35:40.703Z,102091.27
2019-02-23T07:38:45.820Z,102095.30
2019-02-23T07:41:52.036Z,102094.32
2019-02-23T07:44:57.160Z,102111.00
2019-02-23T07:48:02.391Z,102103.52
2019-02-23T07:51:07.628Z,102111.69
2019-02-23T07:54:12.822Z,102113.09
2019-02-23T07:57:18.074Z,102121.08
2019-02-23T08:00:23.250Z,102123.81
2019-02-23T08:03:28.372Z,102120.67
2019-02-23T08:06:33.611Z,102124.86
2019-02-23T08:09:38.927Z,102117.80
2019-02-23T08:12:44.116Z,102119.78
2019-02-23T08:15:49.610Z,102125.57
2019-02-23T08:18:55.907Z,102127.45
2019-02-23T08:22:01.017Z,102124.23
2019-02-23T08:25:07.975Z,102110.80
2019-02-23T08:28:13.214Z,102102.89
2019-02-23T08:31:18.381Z,102101.58
2019-02-23T08:34:25.233Z,102097.14
2019-02-23T08:37:30.349Z,102115.02
2019-02-23T08:40:35.457Z,102113.11
2019-02-23T08:43:40.574Z,102104.58
2019-02-23T08:46:45.812Z,102114.05
2019-02-23T08:49:51.007Z,102115.71
2019-02-23T08:52:56.200Z,102105.50
2019-02-23T08:56:01.378Z,102100.43
2019-02-23T08:59:06.530Z,102091.72
2019-02-23T09:02:11.780Z,102091.10
2019-02-23T09:05:16.951Z,102093.95
2019-02-23T09:08:22.087Z,102086.94
2019-02-23T09:11:27.202Z,102090.28
2019-02-23T09:14:32.322Z,102090.77
2019-02-23T09:17:37.605Z,102097.40
2019-02-23T09:20:42.762Z,102105.45
2019-02-23T09:23:47.910Z,102103.26
2019-02-23T09:26:53.170Z,102098.34
2019-02-23T09:29:58.425Z,102107.06
2019-02-23T09:33:03.686Z,102109.86
2019-02-23T09:36:08.862Z,102118.48
2019-02-23T09:39:13.986Z,102121.27
2019-02-23T09:42:19.066Z,102119.94
2019-02-23T09:45:24.234Z,102131.32
2019-02-23T09:48:29.324Z,102134.84
2019-02-23T09:51:34.517Z,102132.47
2019-02-23T09:54:39.622Z,102137.68
2019-02-23T09:57:44.833Z,102128.33
2019-02-23T10:00:49.989Z,102124.39
2019-02-23T10:03:55.128Z,102115.92
2019-02-23T10:07:00.330Z,102108.03
2019-02-23T10:10:05.923Z,102106.32
2019-02-23T10:13:11.101Z,102096.19
2019-02-23T10:16:16.267Z,102082.82
2019-02-23T10:19:21.491Z,102086.70
2019-02-23T10:22:26.680Z,102072.23
2019-02-23T10:25:31.876Z,102072.35
2019-02-23T10:28:37.084Z,102069.58
2019-02-23T10:31:42.379Z,102063.98
2019-02-23T10:34:47.488Z,102080.49
2019-02-23T10:37:52.626Z,102070.23
2019-02-23T10:40:59.736Z,102079.84
2019-02-23T10:44:04.650Z,102086.05
2019-02-23T10:47:09.968Z,102104.78
2019-02-23T10:50:15.819Z,102090.53
2019-02-23T10:53:20.896Z,102093.70
2019-02-23T10:56:26.068Z,102092.27
2019-02-23T10:59:31.209Z,102097.08
2019-02-23T11:02:36.381Z,102089.53
2019-02-23T11:05:41.566Z,102084.63
2019-02-23T11:08:46.734Z,102077.17
2019-02-23T11:11:51.922Z,102080.83
2019-02-23T11:14:57.110Z,102080.35
2019-02-23T11:18:03.063Z,102082.56
2019-02-23T11:21:08.613Z,102071.59
2019-02-23T11:24:14.057Z,102057.86
2019-02-23T11:27:19.257Z,102060.52
2019-02-23T11:30:24.420Z,102058.84
2019-02-23T11:33:29.770Z,102059.45
2019-02-23T11:36:34.935Z,102069.75
2019-02-23T11:39:40.027Z,102061.38
2019-02-23T11:42:45.170Z,102048.79
2019-02-23T11:45:50.367Z,102041.45
2019-02-23T11:48:55.619Z,102049.88
2019-02-23T11:52:00.771Z,102048.53
2019-02-23T11:55:06.059Z,102049.52
2019-02-23T11:58:12.303Z,102035.12
2019-02-23T12:01:18.521Z,102034.47
2019-02-23T12:04:23.716Z,102016.53
2019-02-23T12:07:28.863Z,102005.92
2019-02-23T12:10:34.032Z,102003.91
2019-02-23T12:13:39.288Z,102002.00
2019-02-23T12:16:44.454Z,102008.84
2019-02-23T12:19:49.626Z,102016.64
2019-02-23T12:22:54.923Z,101988.02
2019-02-23T12:26:00.123Z,101986.31
2019-02-23T12:29:05.315Z,101979.74
2019-02-23T12:32:10.545Z,101980.66
2019-02-23T12:35:15.819Z,101966.97
2019-02-23T12:38:20.994Z,101944.36
2019-02-23T12:41:26.538Z,101935.69
2019-02-23T12:44:31.878Z,101936.95
2019-02-23T12:47:37.076Z,101935.82
2019-02-23T12:50:42.236Z,101927.47
2019-02-23T12:53:47.370Z,101924.29
2019-02-23T12:56:52.528Z,101914.98
2019-02-23T12:59:57.696Z,101912.51
2019-02-23T13:03:02.842Z,101905.23
2019-02-23T13:06:08.043Z,101900.44
2019-02-23T13:09:18.190Z,101892.73
2019-02-23T13:12:31.203Z,101905.56
2019-02-23T13:16:13.310Z,101897.84
2019-02-23T13:20:14.305Z,101897.69
2019-02-23T13:23:42.016Z,101887.16
2019-02-23T13:27:10.726Z,101892.45
2019-02-23T13:30:50.095Z,101884.41
2019-02-23T13:34:34.967Z,101883.16
2019-02-23T13:38:08.655Z,101879.84
2019-02-23T13:41:47.663Z,101883.99
2019-02-23T13:45:33.769Z,101880.60
2019-02-23T13:49:03.489Z,101883.34
2019-02-23T13:52:55.775Z,101882.79
2019-02-23T13:56:37.910Z,101875.28
2019-02-23T14:00:23.748Z,101873.48
2019-02-23T14:04:15.799Z,101868.11
2019-02-23T14:08:02.560Z,101860.55
2019-02-23T14:11:32.142Z,101859.75
2019-02-23T14:15:12.124Z,101853.86
2019-02-23T14:18:50.419Z,101858.66
2019-02-23T14:22:23.718Z,101850.87
2019-02-23T14:26:02.292Z,101860.73
2019-02-23T14:29:13.393Z,101853.80
2019-02-23T14:32:47.070Z,101847.62
2019-02-23T14:36:16.337Z,101840.25
2019-02-23T14:40:10.757Z,101848.52
2019-02-23T14:44:12.219Z,101852.22
2019-02-23T14:48:13.834Z,101840.80
2019-02-23T14:51:57.651Z,101834.22
2019-02-23T14:55:14.279Z,101832.95
2019-02-23T14:59:14.994Z,101835.11
2019-02-23T15:02:57.164Z,101829.06
2019-02-23T15:06:39.319Z,101832.39
2019-02-23T15:10:35.163Z,101839.58
2019-02-23T15:14:05.519Z,101839.42
2019-02-23T15:17:48.596Z,101837.28
2019-02-23T15:21:02.500Z,101840.02
2019-02-23T15:24:45.450Z,101849.95
2019-02-23T15:28:36.921Z,101847.69
2019-02-23T15:32:01.200Z,101848.44
2019-02-23T15:35:43.341Z,101845.44
2019-02-23T15:39:25.919Z,101842.00
2019-02-23T15:43:08.862Z,101839.02
2019-02-23T15:47:02.389Z,101841.36
2019-02-23T15:50:13.005Z,101845.43
2019-02-23T15:53:14.610Z,101848.52
2019-02-23T15:56:19.807Z,101853.22
2019-02-23T15:59:25.992Z,101849.36
2019-02-23T16:02:31.165Z,101854.90
2019-02-23T16:05:36.420Z,101857.75
2019-02-23T16:08:41.554Z,101854.36
2019-02-23T16:11:46.685Z,101855.24
2019-02-23T16:14:51.914Z,101861.20
2019-02-23T16:17:57.046Z,101861.53
2019-02-23T16:21:03.815Z,101855.53
2019-02-23T16:24:19.742Z,101848.14
2019-02-23T16:27:25.004Z,101860.08
2019-02-23T16:30:30.161Z,101860.00
2019-02-23T16:33:35.800Z,101855.16
2019-02-23T16:36:41.042Z,101851.26
2019-02-23T16:39:46.260Z,101848.78
2019-02-23T16:42:51.448Z,101858.32
2019-02-23T16:45:56.630Z,101865.92
2019-02-23T16:49:01.824Z,101866.84
2019-02-23T16:52:09.230Z,101871.24
2019-02-23T16:55:14.219Z,101870.59
2019-02-23T16:58:19.409Z,101876.72
2019-02-23T17:01:24.642Z,101889.83
2019-02-23T17:04:29.844Z,101898.94
2019-02-23T17:07:35.136Z,101903.23
2019-02-23T17:10:40.360Z,101899.77
2019-02-23T17:13:45.654Z,101903.70
2019-02-23T17:16:50.792Z,101904.63
2019-02-23T17:19:56.000Z,101911.02
2019-02-23T17:23:02.098Z,101904.09
2019-02-23T17:26:07.476Z,101907.87
2019-02-23T17:29:12.738Z,101907.30
2019-02-23T17:32:17.927Z,101900.41
2019-02-23T17:35:23.127Z,101902.95
2019-02-23T17:38:28.271Z,101906.48
2019-02-23T17:41:33.403Z,101901.42
2019-02-23T17:44:39.532Z,101901.45
2019-02-23T17:47:44.710Z,101897.75
2019-02-23T17:50:50.773Z,101898.89
2019-02-23T17:53:56.087Z,101897.04
2019-02-23T17:57:01.260Z,101906.56
2019-02-23T18:00:07.744Z,101904.84
2019-02-23T18:03:13.164Z,101908.65
2019-02-23T18:06:18.416Z,101909.00
2019-02-23T18:09:23.687Z,101914.38
2019-02-23T18:12:29.716Z,101909.16
2019-02-23T18:15:34.938Z,101915.98
2019-02-23T18:18:40.140Z,101919.13
2019-02-23T18:21:45.337Z,101922.19
2019-02-23T18:24:50.640Z,101915.61
2019-02-23T18:27:56.032Z,101919.28
2019-02-23T18:31:01.298Z,101911.63
2019-02-23T18:34:06.575Z,101916.45
2019-02-23T18:37:11.723Z,101912.36
2019-02-23T18:40:17.035Z,101911.03
2019-02-23T18:43:22.290Z,101908.36
2019-02-23T18:46:27.611Z,101906.66
2019-02-23T18:49:32.815Z,101903.36
2019-02-23T18:52:38.063Z,101908.70
2019-02-23T18:55:43.253Z,101906.14
2019-02-23T18:58:48.514Z,101918.28
2019-02-23T19:01:53.831Z,101911.09
2019-02-23T19:04:59.151Z,101909.36
2019-02-23T19:08:04.510Z,101912.08
2019-02-23T19:11:09.636Z,101910.59
2019-02-23T19:14:14.951Z,101909.27
2019-02-23T19:17:20.443Z,101909.45
2019-02-23T19:20:25.567Z,101907.92
2019-02-23T19:23:30.868Z,101902.17
2019-02-23T19:26:38.131Z,101908.34
2019-02-23T19:29:43.011Z,101894.70
2019-02-23T19:32:48.342Z,101897.93
2019-02-23T19:35:53.657Z,101894.38
2019-02-23T19:38:58.895Z,101895.45
2019-02-23T19:42:04.161Z,101883.61
2019-02-23T19:45:09.702Z,101888.62
2019-02-23T19:48:15.003Z,101884.48
2019-02-23T19:51:20.114Z,101894.87
2019-02-23T19:54:25.584Z,101901.46
2019-02-23T19:57:30.790Z,101893.40
2019-02-23T20:00:36.001Z,101890.09
2019-02-23T20:03:41.497Z,101885.00
2019-02-23T20:06:46.732Z,101882.02
2019-02-23T20:09:51.976Z,101884.64
2019-02-23T20:12:57.280Z,101880.72
2019-02-23T20:16:03.486Z,101880.41
2019-02-23T20:19:08.856Z,101888.96
2019-02-23T20:22:14.186Z,101886.56
2019-02-23T20:25:19.505Z,101883.97
2019-02-23T20:28:24.679Z,101884.01
2019-02-23T20:31:29.933Z,101894.33
2019-02-23T20:34:35.397Z,101898.88
2019-02-23T20:37:40.592Z,101902.64
2019-02-23T20:40:45.879Z,101909.98
2019-02-23T20:43:51.044Z,101908.45
2019-02-23T20:46:56.193Z,101907.65
2019-02-23T20:50:01.546Z,101906.12
2019-02-23T20:53:06.829Z,101901.30
2019-02-23T20:56:12.050Z,101910.03
2019-02-23T20:59:17.275Z,101914.69
2019-02-23T21:02:22.492Z,101919.55
2019-02-23T21:05:27.634Z,101912.20
2019-02-23T21:08:32.836Z,101917.14
2019-02-23T21:11:38.042Z,101915.65
2019-02-23T21:14:43.215Z,101918.30
2019-02-23T21:17:48.587Z,101917.18
2019-02-23T21:20:53.847Z,101921.27
2019-02-23T21:23:59.049Z,101924.97
2019-02-23T21:27:12.645Z,101926.08
2019-02-23T21:30:11.376Z,101926.47
2019-02-23T21:33:16.618Z,101918.33
2019-02-23T21:36:22.755Z,101925.31
2019-02-23T21:39:28.023Z,101925.39
2019-02-23T21:42:33.148Z,101923.02
2019-02-23T21:45:39.499Z,101921.23
2019-02-23T21:48:44.670Z,101912.78
2019-02-23T21:51:49.902Z,101919.01
2019-02-23T21:54:55.128Z,101920.70
2019-02-23T21:58:00.395Z,101925.63
2019-02-23T22:01:05.604Z,101915.80
2019-02-23T22:04:10.869Z,101922.53
2019-02-23T22:07:16.180Z,101923.97
2019-02-23T22:10:21.390Z,101926.59
2019-02-23T22:13:26.558Z,101918.95
2019-02-23T22:16:31.663Z,101926.13
2019-02-23T22:19:36.829Z,101921.55
2019-02-23T22:22:41.968Z,101926.56
2019-02-23T22:25:47.159Z,101928.66
2019-02-23T22:28:52.440Z,101930.41
2019-02-23T22:31:58.672Z,101932.45
2019-02-23T22:35:03.924Z,101926.94
2019-02-23T22:38:09.174Z,101924.22
2019-02-23T22:41:14.341Z,101934.20
2019-02-23T22:44:19.547Z,101940.39
2019-02-23T22:47:24.690Z,101941.31
2019-02-23T22:50:30.042Z,101954.23
2019-02-23T22:53:35.596Z,101949.79
2019-02-23T22:56:40.815Z,101948.64
2019-02-23T22:59:45.982Z,101939.58
2019-02-23T23:02:51.350Z,101937.33
2019-02-23T23:05:56.596Z,101940.62
2019-02-23T23:09:01.725Z,101934.76
2019-02-23T23:12:08.599Z,101938.78
2019-02-23T23:15:13.944Z,101938.77
2019-02-23T23:18:19.149Z,101938.53
2019-02-23T23:21:24.285Z,101944.31
2019-02-23T23:24:29.511Z,101945.09
2019-02-23T23:27:34.729Z,101939.13
2019-02-23T23:30:39.893Z,101948.45
2019-02-23T23:33:45.324Z,101949.77
2019-02-23T23:36:50.510Z,101953.80
2019-02-23T23:39:55.704Z,101960.33
2019-02-23T23:43:00.901Z,101951.69
2019-02-23T23:46:06.142Z,101949.17
2019-02-23T23:49:11.371Z,101952.47
2019-02-23T23:52:16.597Z,101946.05
2019-02-23T23:55:21.828Z,101947.68
2019-02-23T23:58:27.033Z,101940.52
